sensor_id;sensor_type;location;lat;lon;timestamp;P1;durP1;ratioP1;P2;durP2;ratioP2
9559;SDS011;4818;50.860;4.648;2022-08-21T00:02:01;3.10;;;1.05;;
9559;SDS011;4818;50.860;4.648;2022-08-21T00:04:27;2.28;;;1.10;;
9559;SDS011;4818;50.860;4.648;2022-08-21T00:06:53;4.95;;;0.95;;
9559;SDS011;4818;50.860;4.648;2022-08-21T00:09:19;4.88;;;1.73;;
9559;SDS011;4818;50.860;4.648;2022-08-21T00:11:46;5.57;;;1.85;;
9559;SDS011;4818;50.860;4.648;2022-08-21T00:14:13;4.10;;;1.00;;
9559;SDS011;4818;50.860;4.648;2022-08-21T00:16:40;4.55;;;0.90;;
9559;SDS011;4818;50.860;4.648;2022-08-21T00:19:06;3.67;;;0.90;;
9559;SDS011;4818;50.860;4.648;2022-08-21T00:21:34;4.05;;;1.42;;
9559;SDS011;4818;50.860;4.648;2022-08-21T00:24:01;7.32;;;1.60;;
9559;SDS011;4818;50.860;4.648;2022-08-21T00:26:27;4.22;;;1.15;;
9559;SDS011;4818;50.860;4.648;2022-08-21T00:28:53;6.45;;;1.73;;
9559;SDS011;4818;50.860;4.648;2022-08-21T00:31:19;5.28;;;1.33;;
9559;SDS011;4818;50.860;4.648;2022-08-21T00:33:46;7.78;;;1.40;;
9559;SDS011;4818;50.860;4.648;2022-08-21T00:36:12;6.18;;;1.85;;
9559;SDS011;4818;50.860;4.648;2022-08-21T00:38:38;6.85;;;1.58;;
9559;SDS011;4818;50.860;4.648;2022-08-21T00:41:06;7.82;;;1.40;;
9559;SDS011;4818;50.860;4.648;2022-08-21T00:43:34;3.33;;;1.73;;
9559;SDS011;4818;50.860;4.648;2022-08-21T00:46:01;6.45;;;1.67;;
9559;SDS011;4818;50.860;4.648;2022-08-21T00:48:27;4.00;;;1.75;;
9559;SDS011;4818;50.860;4.648;2022-08-21T00:51:03;5.57;;;1.52;;
9559;SDS011;4818;50.860;4.648;2022-08-21T00:53:29;7.88;;;1.50;;
9559;SDS011;4818;50.860;4.648;2022-08-21T00:55:56;3.88;;;1.60;;
9559;SDS011;4818;50.860;4.648;2022-08-21T00:58:23;4.45;;;1.73;;
9559;SDS011;4818;50.860;4.648;2022-08-21T01:00:50;6.40;;;1.52;;
9559;SDS011;4818;50.860;4.648;2022-08-21T01:03:17;4.10;;;1.48;;
9559;SDS011;4818;50.860;4.648;2022-08-21T01:05:45;5.65;;;1.60;;
9559;SDS011;4818;50.860;4.648;2022-08-21T01:08:11;2.92;;;1.52;;
9559;SDS011;4818;50.860;4.648;2022-08-21T01:10:39;6.00;;;1.45;;
9559;SDS011;4818;50.860;4.648;2022-08-21T01:13:06;4.32;;;1.40;;
9559;SDS011;4818;50.860;4.648;2022-08-21T01:15:34;5.68;;;1.58;;
9559;SDS011;4818;50.860;4.648;2022-08-21T01:18:02;5.78;;;1.85;;
9559;SDS011;4818;50.860;4.648;2022-08-21T01:20:28;6.45;;;1.52;;
9559;SDS011;4818;50.860;4.648;2022-08-21T01:22:55;3.50;;;1.52;;
9559;SDS011;4818;50.860;4.648;2022-08-21T01:25:21;3.38;;;1.58;;
9559;SDS011;4818;50.860;4.648;2022-08-21T01:27:47;5.53;;;1.67;;
9559;SDS011;4818;50.860;4.648;2022-08-21T01:30:15;6.80;;;1.60;;
9559;SDS011;4818;50.860;4.648;2022-08-21T01:32:42;3.88;;;1.13;;
9559;SDS011;4818;50.860;4.648;2022-08-21T01:35:09;8.02;;;1.45;;
9559;SDS011;4818;50.860;4.648;2022-08-21T01:37:36;5.38;;;1.40;;
9559;SDS011;4818;50.860;4.648;2022-08-21T01:40:03;7.88;;;1.10;;
9559;SDS011;4818;50.860;4.648;2022-08-21T01:42:29;3.65;;;1.40;;
9559;SDS011;4818;50.860;4.648;2022-08-21T01:44:55;3.08;;;1.10;;
9559;SDS011;4818;50.860;4.648;2022-08-21T01:47:22;7.07;;;1.45;;
9559;SDS011;4818;50.860;4.648;2022-08-21T01:49:48;5.05;;;1.45;;
9559;SDS011;4818;50.860;4.648;2022-08-21T01:52:14;3.42;;;1.00;;
9559;SDS011;4818;50.860;4.648;2022-08-21T01:54:40;5.50;;;2.15;;
9559;SDS011;4818;50.860;4.648;2022-08-21T01:57:07;5.22;;;1.30;;
9559;SDS011;4818;50.860;4.648;2022-08-21T01:59:34;7.93;;;1.95;;
9559;SDS011;4818;50.860;4.648;2022-08-21T02:02:00;3.92;;;1.20;;
9559;SDS011;4818;50.860;4.648;2022-08-21T02:04:26;3.85;;;1.40;;
9559;SDS011;4818;50.860;4.648;2022-08-21T02:06:53;12.20;;;2.10;;
9559;SDS011;4818;50.860;4.648;2022-08-21T02:09:19;2.28;;;1.30;;
9559;SDS011;4818;50.860;4.648;2022-08-21T02:11:46;3.03;;;1.60;;
9559;SDS011;4818;50.860;4.648;2022-08-21T02:14:13;3.38;;;1.35;;
9559;SDS011;4818;50.860;4.648;2022-08-21T02:16:41;3.40;;;1.50;;
9559;SDS011;4818;50.860;4.648;2022-08-21T02:19:08;6.35;;;2.10;;
9559;SDS011;4818;50.860;4.648;2022-08-21T02:21:34;5.22;;;2.17;;
9559;SDS011;4818;50.860;4.648;2022-08-21T02:24:00;7.32;;;2.13;;
9559;SDS011;4818;50.860;4.648;2022-08-21T02:26:26;5.30;;;1.60;;
9559;SDS011;4818;50.860;4.648;2022-08-21T02:28:53;9.40;;;1.90;;
9559;SDS011;4818;50.860;4.648;2022-08-21T02:31:19;5.45;;;1.63;;
9559;SDS011;4818;50.860;4.648;2022-08-21T02:33:45;5.75;;;1.88;;
9559;SDS011;4818;50.860;4.648;2022-08-21T02:36:12;5.47;;;1.83;;
9559;SDS011;4818;50.860;4.648;2022-08-21T02:38:40;5.90;;;1.52;;
9559;SDS011;4818;50.860;4.648;2022-08-21T02:41:08;8.10;;;2.05;;
9559;SDS011;4818;50.860;4.648;2022-08-21T02:43:35;9.23;;;2.20;;
9559;SDS011;4818;50.860;4.648;2022-08-21T02:46:02;5.95;;;1.27;;
9559;SDS011;4818;50.860;4.648;2022-08-21T02:48:29;8.68;;;2.40;;
9559;SDS011;4818;50.860;4.648;2022-08-21T02:50:57;9.45;;;2.00;;
9559;SDS011;4818;50.860;4.648;2022-08-21T02:53:24;5.22;;;1.35;;
9559;SDS011;4818;50.860;4.648;2022-08-21T02:55:51;4.78;;;1.67;;
9559;SDS011;4818;50.860;4.648;2022-08-21T02:58:19;8.30;;;1.95;;
9559;SDS011;4818;50.860;4.648;2022-08-21T03:00:45;3.85;;;1.58;;
9559;SDS011;4818;50.860;4.648;2022-08-21T03:03:12;8.05;;;2.03;;
9559;SDS011;4818;50.860;4.648;2022-08-21T03:05:39;4.35;;;1.40;;
9559;SDS011;4818;50.860;4.648;2022-08-21T03:08:07;8.38;;;1.58;;
9559;SDS011;4818;50.860;4.648;2022-08-21T03:10:35;7.85;;;1.52;;
9559;SDS011;4818;50.860;4.648;2022-08-21T03:13:02;10.13;;;2.17;;
9559;SDS011;4818;50.860;4.648;2022-08-21T03:15:29;4.55;;;1.67;;
9559;SDS011;4818;50.860;4.648;2022-08-21T03:17:55;6.97;;;1.95;;
9559;SDS011;4818;50.860;4.648;2022-08-21T03:20:22;5.43;;;1.42;;
9559;SDS011;4818;50.860;4.648;2022-08-21T03:22:49;7.70;;;1.88;;
9559;SDS011;4818;50.860;4.648;2022-08-21T03:25:16;11.48;;;1.80;;
9559;SDS011;4818;50.860;4.648;2022-08-21T03:27:43;4.05;;;1.70;;
9559;SDS011;4818;50.860;4.648;2022-08-21T03:30:09;5.45;;;1.15;;
9559;SDS011;4818;50.860;4.648;2022-08-21T03:32:35;6.80;;;1.48;;
9559;SDS011;4818;50.860;4.648;2022-08-21T03:35:03;4.80;;;1.73;;
9559;SDS011;4818;50.860;4.648;2022-08-21T03:37:29;6.43;;;1.33;;
9559;SDS011;4818;50.860;4.648;2022-08-21T03:39:56;9.25;;;1.35;;
9559;SDS011;4818;50.860;4.648;2022-08-21T03:42:22;4.97;;;1.63;;
9559;SDS011;4818;50.860;4.648;2022-08-21T03:44:48;5.03;;;1.10;;
9559;SDS011;4818;50.860;4.648;2022-08-21T03:47:14;4.70;;;1.10;;
9559;SDS011;4818;50.860;4.648;2022-08-21T03:49:40;6.70;;;1.50;;
9559;SDS011;4818;50.860;4.648;2022-08-21T03:52:07;8.77;;;2.13;;
9559;SDS011;4818;50.860;4.648;2022-08-21T03:54:33;6.65;;;1.77;;
9559;SDS011;4818;50.860;4.648;2022-08-21T03:56:59;3.17;;;1.00;;
9559;SDS011;4818;50.860;4.648;2022-08-21T03:59:26;7.20;;;1.30;;
9559;SDS011;4818;50.860;4.648;2022-08-21T04:01:56;3.55;;;1.48;;
9559;SDS011;4818;50.860;4.648;2022-08-21T04:04:23;4.47;;;1.00;;
9559;SDS011;4818;50.860;4.648;2022-08-21T04:06:49;7.70;;;1.50;;
9559;SDS011;4818;50.860;4.648;2022-08-21T04:09:16;4.50;;;1.40;;
9559;SDS011;4818;50.860;4.648;2022-08-21T04:11:42;4.05;;;1.40;;
9559;SDS011;4818;50.860;4.648;2022-08-21T04:14:08;5.90;;;1.50;;
9559;SDS011;4818;50.860;4.648;2022-08-21T04:16:35;6.60;;;1.23;;
9559;SDS011;4818;50.860;4.648;2022-08-21T04:19:01;4.88;;;1.80;;
9559;SDS011;4818;50.860;4.648;2022-08-21T04:21:27;8.38;;;2.05;;
9559;SDS011;4818;50.860;4.648;2022-08-21T04:23:54;4.30;;;1.10;;
9559;SDS011;4818;50.860;4.648;2022-08-21T04:26:21;5.28;;;1.65;;
9559;SDS011;4818;50.860;4.648;2022-08-21T04:28:47;5.53;;;1.67;;
9559;SDS011;4818;50.860;4.648;2022-08-21T04:31:13;4.30;;;1.55;;
9559;SDS011;4818;50.860;4.648;2022-08-21T04:33:40;3.65;;;1.50;;
9559;SDS011;4818;50.860;4.648;2022-08-21T04:36:06;2.28;;;1.00;;
9559;SDS011;4818;50.860;4.648;2022-08-21T04:38:33;6.35;;;1.25;;
9559;SDS011;4818;50.860;4.648;2022-08-21T04:40:59;4.10;;;1.35;;
9559;SDS011;4818;50.860;4.648;2022-08-21T04:43:25;2.47;;;1.08;;
9559;SDS011;4818;50.860;4.648;2022-08-21T04:45:51;5.28;;;1.20;;
9559;SDS011;4818;50.860;4.648;2022-08-21T04:48:19;9.80;;;2.35;;
9559;SDS011;4818;50.860;4.648;2022-08-21T04:50:56;5.82;;;1.10;;
9559;SDS011;4818;50.860;4.648;2022-08-21T04:53:45;2.70;;;1.25;;
9559;SDS011;4818;50.860;4.648;2022-08-21T04:56:14;8.57;;;1.08;;
9559;SDS011;4818;50.860;4.648;2022-08-21T04:58:41;11.07;;;1.67;;
9559;SDS011;4818;50.860;4.648;2022-08-21T05:01:09;4.18;;;0.95;;
9559;SDS011;4818;50.860;4.648;2022-08-21T05:03:36;7.70;;;1.40;;
9559;SDS011;4818;50.860;4.648;2022-08-21T05:06:04;3.38;;;1.20;;
9559;SDS011;4818;50.860;4.648;2022-08-21T05:08:34;5.38;;;1.20;;
9559;SDS011;4818;50.860;4.648;2022-08-21T05:11:00;4.20;;;1.02;;
9559;SDS011;4818;50.860;4.648;2022-08-21T05:13:28;4.32;;;1.42;;
9559;SDS011;4818;50.860;4.648;2022-08-21T05:15:54;2.92;;;1.20;;
9559;SDS011;4818;50.860;4.648;2022-08-21T05:18:20;3.58;;;1.10;;
9559;SDS011;4818;50.860;4.648;2022-08-21T05:20:47;3.90;;;1.08;;
9559;SDS011;4818;50.860;4.648;2022-08-21T05:23:13;8.52;;;1.58;;
9559;SDS011;4818;50.860;4.648;2022-08-21T05:25:40;5.65;;;1.10;;
9559;SDS011;4818;50.860;4.648;2022-08-21T05:28:08;8.30;;;1.27;;
9559;SDS011;4818;50.860;4.648;2022-08-21T05:30:35;3.42;;;1.15;;
9559;SDS011;4818;50.860;4.648;2022-08-21T05:33:02;5.35;;;1.20;;
9559;SDS011;4818;50.860;4.648;2022-08-21T05:35:29;5.60;;;1.50;;
9559;SDS011;4818;50.860;4.648;2022-08-21T05:37:56;3.33;;;1.25;;
9559;SDS011;4818;50.860;4.648;2022-08-21T05:40:23;8.02;;;1.35;;
9559;SDS011;4818;50.860;4.648;2022-08-21T05:42:52;6.20;;;0.80;;
9559;SDS011;4818;50.860;4.648;2022-08-21T05:45:19;4.65;;;1.02;;
9559;SDS011;4818;50.860;4.648;2022-08-21T05:47:46;2.58;;;0.60;;
9559;SDS011;4818;50.860;4.648;2022-08-21T05:50:12;4.97;;;1.25;;
9559;SDS011;4818;50.860;4.648;2022-08-21T05:52:38;7.57;;;0.82;;
9559;SDS011;4818;50.860;4.648;2022-08-21T05:55:04;3.55;;;0.88;;
9559;SDS011;4818;50.860;4.648;2022-08-21T05:57:31;6.82;;;0.77;;
9559;SDS011;4818;50.860;4.648;2022-08-21T05:59:57;4.45;;;0.70;;
9559;SDS011;4818;50.860;4.648;2022-08-21T06:02:23;3.58;;;0.70;;
9559;SDS011;4818;50.860;4.648;2022-08-21T06:04:49;5.85;;;0.70;;
9559;SDS011;4818;50.860;4.648;2022-08-21T06:07:15;5.70;;;0.90;;
9559;SDS011;4818;50.860;4.648;2022-08-21T06:09:41;4.63;;;0.73;;
9559;SDS011;4818;50.860;4.648;2022-08-21T06:12:08;3.25;;;0.50;;
9559;SDS011;4818;50.860;4.648;2022-08-21T06:14:36;3.20;;;0.50;;
9559;SDS011;4818;50.860;4.648;2022-08-21T06:17:03;1.90;;;0.55;;
9559;SDS011;4818;50.860;4.648;2022-08-21T06:19:30;5.35;;;0.70;;
9559;SDS011;4818;50.860;4.648;2022-08-21T06:21:56;4.72;;;0.60;;
9559;SDS011;4818;50.860;4.648;2022-08-21T06:24:22;5.57;;;0.82;;
9559;SDS011;4818;50.860;4.648;2022-08-21T06:26:49;3.55;;;0.60;;
9559;SDS011;4818;50.860;4.648;2022-08-21T06:29:15;2.20;;;0.50;;
9559;SDS011;4818;50.860;4.648;2022-08-21T06:31:43;4.28;;;0.60;;
9559;SDS011;4818;50.860;4.648;2022-08-21T06:34:09;5.05;;;0.50;;
9559;SDS011;4818;50.860;4.648;2022-08-21T06:36:36;4.15;;;0.65;;
9559;SDS011;4818;50.860;4.648;2022-08-21T06:39:02;4.18;;;0.63;;
9559;SDS011;4818;50.860;4.648;2022-08-21T06:41:29;3.83;;;0.80;;
9559;SDS011;4818;50.860;4.648;2022-08-21T06:43:55;4.15;;;0.45;;
9559;SDS011;4818;50.860;4.648;2022-08-21T06:46:22;3.55;;;0.40;;
9559;SDS011;4818;50.860;4.648;2022-08-21T06:48:49;5.40;;;0.60;;
9559;SDS011;4818;50.860;4.648;2022-08-21T06:51:15;2.65;;;0.43;;
9559;SDS011;4818;50.860;4.648;2022-08-21T06:53:42;3.05;;;0.40;;
9559;SDS011;4818;50.860;4.648;2022-08-21T06:56:09;2.10;;;0.50;;
9559;SDS011;4818;50.860;4.648;2022-08-21T06:58:35;2.95;;;0.77;;
9559;SDS011;4818;50.860;4.648;2022-08-21T07:01:01;6.32;;;1.08;;
9559;SDS011;4818;50.860;4.648;2022-08-21T07:03:32;4.32;;;0.60;;
9559;SDS011;4818;50.860;4.648;2022-08-21T07:05:58;5.85;;;0.60;;
9559;SDS011;4818;50.860;4.648;2022-08-21T07:08:25;2.83;;;0.57;;
9559;SDS011;4818;50.860;4.648;2022-08-21T07:10:52;5.53;;;0.57;;
9559;SDS011;4818;50.860;4.648;2022-08-21T07:13:19;3.30;;;0.47;;
9559;SDS011;4818;50.860;4.648;2022-08-21T07:15:45;3.92;;;0.60;;
9559;SDS011;4818;50.860;4.648;2022-08-21T07:18:11;3.50;;;0.80;;
9559;SDS011;4818;50.860;4.648;2022-08-21T07:20:38;5.38;;;0.45;;
9559;SDS011;4818;50.860;4.648;2022-08-21T07:23:06;3.63;;;0.63;;
9559;SDS011;4818;50.860;4.648;2022-08-21T07:25:32;3.30;;;0.63;;
9559;SDS011;4818;50.860;4.648;2022-08-21T07:27:58;2.45;;;0.43;;
9559;SDS011;4818;50.860;4.648;2022-08-21T07:30:24;7.80;;;0.65;;
9559;SDS011;4818;50.860;4.648;2022-08-21T07:32:51;3.92;;;0.50;;
9559;SDS011;4818;50.860;4.648;2022-08-21T07:35:18;4.53;;;0.40;;
9559;SDS011;4818;50.860;4.648;2022-08-21T07:37:44;6.18;;;0.60;;
9559;SDS011;4818;50.860;4.648;2022-08-21T07:40:11;2.92;;;0.28;;
9559;SDS011;4818;50.860;4.648;2022-08-21T07:42:41;2.88;;;0.30;;
9559;SDS011;4818;50.860;4.648;2022-08-21T07:45:08;2.97;;;0.30;;
9559;SDS011;4818;50.860;4.648;2022-08-21T07:47:34;2.28;;;0.32;;
9559;SDS011;4818;50.860;4.648;2022-08-21T07:50:00;4.40;;;0.55;;
9559;SDS011;4818;50.860;4.648;2022-08-21T07:52:26;4.05;;;0.60;;
9559;SDS011;4818;50.860;4.648;2022-08-21T07:54:53;4.43;;;0.50;;
9559;SDS011;4818;50.860;4.648;2022-08-21T07:57:19;2.00;;;0.30;;
9559;SDS011;4818;50.860;4.648;2022-08-21T07:59:45;4.53;;;0.40;;
9559;SDS011;4818;50.860;4.648;2022-08-21T08:02:21;3.20;;;0.47;;
9559;SDS011;4818;50.860;4.648;2022-08-21T08:04:47;3.38;;;0.30;;
9559;SDS011;4818;50.860;4.648;2022-08-21T08:07:14;2.33;;;0.30;;
9559;SDS011;4818;50.860;4.648;2022-08-21T08:09:40;3.60;;;0.30;;
9559;SDS011;4818;50.860;4.648;2022-08-21T08:12:07;1.85;;;0.30;;
9559;SDS011;4818;50.860;4.648;2022-08-21T08:14:33;4.70;;;0.35;;
9559;SDS011;4818;50.860;4.648;2022-08-21T08:16:59;4.88;;;0.40;;
9559;SDS011;4818;50.860;4.648;2022-08-21T08:19:27;8.73;;;0.52;;
9559;SDS011;4818;50.860;4.648;2022-08-21T08:21:54;4.90;;;0.30;;
9559;SDS011;4818;50.860;4.648;2022-08-21T08:24:20;3.08;;;0.47;;
9559;SDS011;4818;50.860;4.648;2022-08-21T08:26:46;3.85;;;0.30;;
9559;SDS011;4818;50.860;4.648;2022-08-21T08:29:13;4.85;;;0.30;;
9559;SDS011;4818;50.860;4.648;2022-08-21T08:31:39;4.97;;;0.30;;
9559;SDS011;4818;50.860;4.648;2022-08-21T08:34:05;3.55;;;0.52;;
9559;SDS011;4818;50.860;4.648;2022-08-21T08:36:33;5.22;;;0.40;;
9559;SDS011;4818;50.860;4.648;2022-08-21T08:39:00;3.92;;;0.47;;
9559;SDS011;4818;50.860;4.648;2022-08-21T08:41:26;4.72;;;0.57;;
9559;SDS011;4818;50.860;4.648;2022-08-21T08:43:53;3.88;;;0.60;;
9559;SDS011;4818;50.860;4.648;2022-08-21T08:46:43;6.10;;;0.50;;
9559;SDS011;4818;50.860;4.648;2022-08-21T08:49:53;4.43;;;0.63;;
9559;SDS011;4818;50.860;4.648;2022-08-21T08:52:01;5.07;;;0.45;;
9559;SDS011;4818;50.860;4.648;2022-08-21T08:54:32;4.75;;;0.50;;
9559;SDS011;4818;50.860;4.648;2022-08-21T08:57:00;3.95;;;0.63;;
9559;SDS011;4818;50.860;4.648;2022-08-21T08:59:27;4.97;;;0.30;;
9559;SDS011;4818;50.860;4.648;2022-08-21T09:02:00;3.58;;;0.30;;
9559;SDS011;4818;50.860;4.648;2022-08-21T09:04:26;6.05;;;0.63;;
9559;SDS011;4818;50.860;4.648;2022-08-21T09:07:01;5.50;;;0.75;;
9559;SDS011;4818;50.860;4.648;2022-08-21T09:12:18;6.72;;;0.50;;
9559;SDS011;4818;50.860;4.648;2022-08-21T09:17:39;4.32;;;0.50;;
9559;SDS011;4818;50.860;4.648;2022-08-21T09:20:17;3.05;;;0.57;;
9559;SDS011;4818;50.860;4.648;2022-08-21T09:25:28;2.60;;;0.40;;
9559;SDS011;4818;50.860;4.648;2022-08-21T09:27:56;4.82;;;0.50;;
9559;SDS011;4818;50.860;4.648;2022-08-21T09:30:27;2.85;;;0.43;;
9559;SDS011;4818;50.860;4.648;2022-08-21T09:32:54;4.63;;;0.30;;
9559;SDS011;4818;50.860;4.648;2022-08-21T09:35:21;3.40;;;0.40;;
9559;SDS011;4818;50.860;4.648;2022-08-21T09:42:53;5.88;;;0.60;;
9559;SDS011;4818;50.860;4.648;2022-08-21T09:45:21;1.77;;;0.30;;
9559;SDS011;4818;50.860;4.648;2022-08-21T09:47:47;5.43;;;0.77;;
9559;SDS011;4818;50.860;4.648;2022-08-21T09:50:24;2.55;;;0.30;;
9559;SDS011;4818;50.860;4.648;2022-08-21T09:52:53;3.57;;;0.40;;
9559;SDS011;4818;50.860;4.648;2022-08-21T09:55:39;7.20;;;0.40;;
9559;SDS011;4818;50.860;4.648;2022-08-21T09:58:32;3.28;;;0.60;;
9559;SDS011;4818;50.860;4.648;2022-08-21T10:00:59;3.25;;;0.40;;
9559;SDS011;4818;50.860;4.648;2022-08-21T10:03:26;2.75;;;0.40;;
9559;SDS011;4818;50.860;4.648;2022-08-21T10:06:00;2.72;;;0.40;;
9559;SDS011;4818;50.860;4.648;2022-08-21T10:08:30;3.65;;;0.40;;
9559;SDS011;4818;50.860;4.648;2022-08-21T10:11:02;4.47;;;0.77;;
9559;SDS011;4818;50.860;4.648;2022-08-21T10:18:24;2.80;;;0.57;;
9559;SDS011;4818;50.860;4.648;2022-08-21T10:21:05;5.75;;;0.60;;
9559;SDS011;4818;50.860;4.648;2022-08-21T10:28:36;2.97;;;0.60;;
9559;SDS011;4818;50.860;4.648;2022-08-21T10:36:17;4.30;;;0.30;;
9559;SDS011;4818;50.860;4.648;2022-08-21T10:41:40;5.43;;;0.70;;
9559;SDS011;4818;50.860;4.648;2022-08-21T10:44:25;2.28;;;0.40;;
9559;SDS011;4818;50.860;4.648;2022-08-21T10:46:57;2.47;;;0.35;;
9559;SDS011;4818;50.860;4.648;2022-08-21T10:55:00;5.18;;;0.63;;
9559;SDS011;4818;50.860;4.648;2022-08-21T11:00:15;5.03;;;0.70;;
9559;SDS011;4818;50.860;4.648;2022-08-21T11:07:39;4.38;;;0.50;;
9559;SDS011;4818;50.860;4.648;2022-08-21T11:10:14;3.78;;;0.75;;
9559;SDS011;4818;50.860;4.648;2022-08-21T11:12:44;5.18;;;0.43;;
9559;SDS011;4818;50.860;4.648;2022-08-21T11:18:21;4.47;;;0.68;;
9559;SDS011;4818;50.860;4.648;2022-08-21T11:21:27;4.45;;;0.70;;
9559;SDS011;4818;50.860;4.648;2022-08-21T11:23:38;6.75;;;0.50;;
9559;SDS011;4818;50.860;4.648;2022-08-21T11:26:08;4.72;;;0.55;;
9559;SDS011;4818;50.860;4.648;2022-08-21T11:28:37;4.63;;;0.60;;
9559;SDS011;4818;50.860;4.648;2022-08-21T11:31:16;5.80;;;0.60;;
9559;SDS011;4818;50.860;4.648;2022-08-21T11:33:47;6.07;;;0.55;;
9559;SDS011;4818;50.860;4.648;2022-08-21T11:36:19;5.75;;;0.60;;
9559;SDS011;4818;50.860;4.648;2022-08-21T11:38:55;4.53;;;0.60;;
9559;SDS011;4818;50.860;4.648;2022-08-21T11:41:47;8.63;;;0.82;;
9559;SDS011;4818;50.860;4.648;2022-08-21T11:44:45;5.40;;;0.70;;
9559;SDS011;4818;50.860;4.648;2022-08-21T11:47:08;4.82;;;0.88;;
9559;SDS011;4818;50.860;4.648;2022-08-21T11:49:42;3.95;;;0.50;;
9559;SDS011;4818;50.860;4.648;2022-08-21T11:54:58;4.20;;;0.60;;
9559;SDS011;4818;50.860;4.648;2022-08-21T12:00:16;5.93;;;0.80;;
9559;SDS011;4818;50.860;4.648;2022-08-21T12:02:50;5.35;;;0.68;;
9559;SDS011;4818;50.860;4.648;2022-08-21T12:05:27;7.18;;;0.80;;
9559;SDS011;4818;50.860;4.648;2022-08-21T12:08:03;2.85;;;0.73;;
9559;SDS011;4818;50.860;4.648;2022-08-21T12:10:35;6.90;;;1.20;;
9559;SDS011;4818;50.860;4.648;2022-08-21T12:13:07;7.93;;;0.93;;
9559;SDS011;4818;50.860;4.648;2022-08-21T12:15:34;5.07;;;0.77;;
9559;SDS011;4818;50.860;4.648;2022-08-21T12:18:02;5.20;;;0.52;;
9559;SDS011;4818;50.860;4.648;2022-08-21T12:23:03;3.00;;;0.70;;
9559;SDS011;4818;50.860;4.648;2022-08-21T12:25:40;8.60;;;0.70;;
9559;SDS011;4818;50.860;4.648;2022-08-21T12:28:15;5.10;;;0.68;;
9559;SDS011;4818;50.860;4.648;2022-08-21T12:30:43;6.63;;;0.88;;
9559;SDS011;4818;50.860;4.648;2022-08-21T12:33:27;4.43;;;0.60;;
9559;SDS011;4818;50.860;4.648;2022-08-21T12:36:11;6.63;;;0.50;;
9559;SDS011;4818;50.860;4.648;2022-08-21T12:41:19;2.40;;;0.50;;
9559;SDS011;4818;50.860;4.648;2022-08-21T12:43:50;6.82;;;0.50;;
9559;SDS011;4818;50.860;4.648;2022-08-21T12:46:18;2.63;;;0.30;;
9559;SDS011;4818;50.860;4.648;2022-08-21T12:48:47;7.07;;;0.70;;
9559;SDS011;4818;50.860;4.648;2022-08-21T12:56:11;4.82;;;0.63;;
9559;SDS011;4818;50.860;4.648;2022-08-21T12:58:39;6.40;;;0.50;;
9559;SDS011;4818;50.860;4.648;2022-08-21T13:03:52;6.20;;;0.50;;
9559;SDS011;4818;50.860;4.648;2022-08-21T13:06:19;6.55;;;1.25;;
9559;SDS011;4818;50.860;4.648;2022-08-21T13:08:47;4.57;;;0.63;;
9559;SDS011;4818;50.860;4.648;2022-08-21T13:11:14;3.60;;;0.47;;
9559;SDS011;4818;50.860;4.648;2022-08-21T13:13:42;6.25;;;0.40;;
9559;SDS011;4818;50.860;4.648;2022-08-21T13:16:08;4.22;;;0.47;;
9559;SDS011;4818;50.860;4.648;2022-08-21T13:18:36;7.90;;;1.33;;
9559;SDS011;4818;50.860;4.648;2022-08-21T13:21:06;5.80;;;0.60;;
9559;SDS011;4818;50.860;4.648;2022-08-21T13:23:33;3.05;;;0.50;;
9559;SDS011;4818;50.860;4.648;2022-08-21T13:26:00;3.33;;;0.65;;
9559;SDS011;4818;50.860;4.648;2022-08-21T13:28:32;3.05;;;0.40;;
9559;SDS011;4818;50.860;4.648;2022-08-21T13:30:59;3.58;;;0.40;;
9559;SDS011;4818;50.860;4.648;2022-08-21T13:33:26;5.45;;;0.90;;
9559;SDS011;4818;50.860;4.648;2022-08-21T13:38:32;4.40;;;0.52;;
9559;SDS011;4818;50.860;4.648;2022-08-21T13:43:44;2.60;;;0.50;;
9559;SDS011;4818;50.860;4.648;2022-08-21T13:48:38;7.80;;;0.55;;
9559;SDS011;4818;50.860;4.648;2022-08-21T13:51:04;5.00;;;0.50;;
9559;SDS011;4818;50.860;4.648;2022-08-21T13:53:35;5.10;;;0.50;;
9559;SDS011;4818;50.860;4.648;2022-08-21T13:56:03;3.03;;;0.45;;
9559;SDS011;4818;50.860;4.648;2022-08-21T13:58:31;3.28;;;0.50;;
9559;SDS011;4818;50.860;4.648;2022-08-21T14:00:58;6.70;;;0.60;;
9559;SDS011;4818;50.860;4.648;2022-08-21T14:03:32;4.70;;;0.60;;
9559;SDS011;4818;50.860;4.648;2022-08-21T14:05:59;4.93;;;0.43;;
9559;SDS011;4818;50.860;4.648;2022-08-21T14:08:31;6.15;;;0.40;;
9559;SDS011;4818;50.860;4.648;2022-08-21T14:10:58;4.03;;;0.45;;
9559;SDS011;4818;50.860;4.648;2022-08-21T14:13:28;3.33;;;0.38;;
9559;SDS011;4818;50.860;4.648;2022-08-21T14:15:57;3.78;;;0.68;;
9559;SDS011;4818;50.860;4.648;2022-08-21T14:18:23;4.32;;;0.50;;
9559;SDS011;4818;50.860;4.648;2022-08-21T14:20:51;4.75;;;0.40;;
9559;SDS011;4818;50.860;4.648;2022-08-21T14:23:24;3.83;;;0.40;;
9559;SDS011;4818;50.860;4.648;2022-08-21T14:25:50;3.65;;;0.80;;
9559;SDS011;4818;50.860;4.648;2022-08-21T14:30:44;8.50;;;0.88;;
9559;SDS011;4818;50.860;4.648;2022-08-21T14:33:12;5.47;;;0.55;;
9559;SDS011;4818;50.860;4.648;2022-08-21T14:35:39;3.47;;;0.52;;
9559;SDS011;4818;50.860;4.648;2022-08-21T14:38:19;5.82;;;0.75;;
9559;SDS011;4818;50.860;4.648;2022-08-21T14:40:47;3.85;;;0.50;;
9559;SDS011;4818;50.860;4.648;2022-08-21T14:43:14;3.13;;;0.40;;
9559;SDS011;4818;50.860;4.648;2022-08-21T14:45:40;2.83;;;0.50;;
9559;SDS011;4818;50.860;4.648;2022-08-21T14:48:09;8.13;;;0.65;;
9559;SDS011;4818;50.860;4.648;2022-08-21T14:50:35;5.70;;;0.70;;
9559;SDS011;4818;50.860;4.648;2022-08-21T14:53:01;4.57;;;0.70;;
9559;SDS011;4818;50.860;4.648;2022-08-21T14:55:29;5.72;;;0.55;;
9559;SDS011;4818;50.860;4.648;2022-08-21T14:57:56;1.65;;;0.40;;
9559;SDS011;4818;50.860;4.648;2022-08-21T15:00:23;8.40;;;0.88;;
9559;SDS011;4818;50.860;4.648;2022-08-21T15:02:50;7.18;;;0.60;;
9559;SDS011;4818;50.860;4.648;2022-08-21T15:05:17;3.25;;;0.65;;
9559;SDS011;4818;50.860;4.648;2022-08-21T15:07:47;8.23;;;1.23;;
9559;SDS011;4818;50.860;4.648;2022-08-21T15:12:39;5.35;;;0.63;;
9559;SDS011;4818;50.860;4.648;2022-08-21T15:15:06;7.07;;;0.80;;
9559;SDS011;4818;50.860;4.648;2022-08-21T15:17:32;6.28;;;1.02;;
9559;SDS011;4818;50.860;4.648;2022-08-21T15:19:59;5.35;;;0.47;;
9559;SDS011;4818;50.860;4.648;2022-08-21T15:22:25;6.22;;;0.80;;
9559;SDS011;4818;50.860;4.648;2022-08-21T15:24:51;6.15;;;0.70;;
9559;SDS011;4818;50.860;4.648;2022-08-21T15:27:17;3.85;;;0.50;;
9559;SDS011;4818;50.860;4.648;2022-08-21T15:29:44;5.95;;;0.55;;
9559;SDS011;4818;50.860;4.648;2022-08-21T15:32:18;9.45;;;1.15;;
9559;SDS011;4818;50.860;4.648;2022-08-21T15:34:46;2.53;;;0.50;;
9559;SDS011;4818;50.860;4.648;2022-08-21T15:37:12;3.42;;;0.65;;
9559;SDS011;4818;50.860;4.648;2022-08-21T15:39:38;4.57;;;0.47;;
9559;SDS011;4818;50.860;4.648;2022-08-21T15:42:05;4.40;;;0.57;;
9559;SDS011;4818;50.860;4.648;2022-08-21T15:44:31;4.47;;;0.43;;
9559;SDS011;4818;50.860;4.648;2022-08-21T15:46:58;3.80;;;0.50;;
9559;SDS011;4818;50.860;4.648;2022-08-21T15:49:24;5.43;;;0.50;;
9559;SDS011;4818;50.860;4.648;2022-08-21T15:51:51;4.95;;;0.50;;
9559;SDS011;4818;50.860;4.648;2022-08-21T15:54:17;9.55;;;0.65;;
9559;SDS011;4818;50.860;4.648;2022-08-21T15:56:44;5.70;;;0.50;;
9559;SDS011;4818;50.860;4.648;2022-08-21T15:59:13;5.03;;;0.40;;
9559;SDS011;4818;50.860;4.648;2022-08-21T16:01:40;4.25;;;0.50;;
9559;SDS011;4818;50.860;4.648;2022-08-21T16:04:07;5.05;;;0.60;;
9559;SDS011;4818;50.860;4.648;2022-08-21T16:06:34;5.40;;;0.82;;
9559;SDS011;4818;50.860;4.648;2022-08-21T16:09:01;1.90;;;0.38;;
9559;SDS011;4818;50.860;4.648;2022-08-21T16:11:27;6.25;;;0.70;;
9559;SDS011;4818;50.860;4.648;2022-08-21T16:13:53;3.08;;;0.30;;
9559;SDS011;4818;50.860;4.648;2022-08-21T16:16:21;4.63;;;0.70;;
9559;SDS011;4818;50.860;4.648;2022-08-21T16:18:49;4.65;;;0.50;;
9559;SDS011;4818;50.860;4.648;2022-08-21T16:21:16;7.43;;;0.73;;
9559;SDS011;4818;50.860;4.648;2022-08-21T16:23:42;6.53;;;0.52;;
9559;SDS011;4818;50.860;4.648;2022-08-21T16:26:09;2.97;;;0.50;;
9559;SDS011;4818;50.860;4.648;2022-08-21T16:28:37;5.25;;;0.45;;
9559;SDS011;4818;50.860;4.648;2022-08-21T16:31:04;6.50;;;0.70;;
9559;SDS011;4818;50.860;4.648;2022-08-21T16:35:56;3.35;;;0.77;;
9559;SDS011;4818;50.860;4.648;2022-08-21T16:38:24;6.93;;;0.50;;
9559;SDS011;4818;50.860;4.648;2022-08-21T16:40:50;6.35;;;0.60;;
9559;SDS011;4818;50.860;4.648;2022-08-21T16:43:17;3.17;;;0.40;;